• Join FlightAware (Why Join?)
  • Login
  • US Flag 
12:32PM EDT


 

Airport Tracker/Info


-or-


 

Live Flight TrackerFlight Track Log ✈ SWA22 ✈ 17-Apr-2013 ✈ KDAL - KSAT

Flight Track Log - Related Links

Times and Time Zones

All times are in EDT time to prevent confusion due to time zone crossing. See the SWA22 flight status page for this flight to view local times or setup timezone preferences in your user account.

Time Position Orientation Groundspeed Altitude Reporting Facility
EDT Latitude Longitude Course Direction KTS MPH feet Rate Location/Type
02:12PM 32.8000 -96.8000 140° Southeast 195 224 3,800  Level Dallas / Fort Worth TRACON
02:13PM 32.7500 -96.7333 132° Southeast 222 255 6,900 2,400 Climbing Dallas / Fort Worth TRACON
02:14PM 32.7000 -96.7333 180° South 244 281 8,900 1,500 Climbing Dallas / Fort Worth TRACON
02:15PM 32.6333 -96.7833 212° Southwest 261 300 10,000 720 Climbing Dallas / Fort Worth TRACON
02:16PM 32.5981 -96.8242 224° Southwest 268 308 10,100 1,320 Climbing Fort Worth Center
02:17PM 32.5211 -96.8811 212° Southwest 307 353 12,300 2,160 Climbing Fort Worth Center
02:18PM 32.4506 -96.9333 212° Southwest 332 382 14,500 2,340 Climbing Fort Worth Center
02:19PM 32.3608 -97.0028 213° Southwest 351 404 17,000 2,280 Climbing Fort Worth Center
02:20PM 32.2756 -97.0619 210° Southwest 357 411 19,100 2,100 Climbing Fort Worth Center
02:21PM 32.1814 -97.0622 180° South 370 426 21,300 1,860 Climbing Fort Worth Center
02:22PM 32.0772 -97.0653 181° South 370 426 22,900 1,800 Climbing Fort Worth Center
02:23PM 31.9539 -97.0706 182° South 395 455 24,900 1,680 Climbing Fort Worth Center
02:24PM 31.8414 -97.0758 182° South 404 465 26,300 1,440 Climbing Fort Worth Center
02:26PM 31.6681 -97.0783 181° South 416 479 28,700 1,440 Climbing Houston Center
02:27PM 31.5519 -97.0825 182° South 413 475 30,100 600 Climbing Houston Center
02:28PM 31.4400 -97.1186 195° South 416 479 30,000 -60 Descending Houston Center
02:29PM 31.3292 -97.1622 199° South 416 479 30,000  Level Houston Center
02:30PM 31.2014 -97.2128 199° South 414 476 30,000 -60 Level Houston Center
02:31PM 31.0986 -97.2664 204° Southwest 405 466 29,900 -540 Descending Houston Center
02:32PM 31.0044 -97.3150 204° Southwest 405 466 29,000 -900 Descending Houston Center
02:33PM 30.8889 -97.3714 203° Southwest 413 475 28,100 -540 Descending Houston Center
02:34PM 30.7661 -97.4311 203° Southwest 412 474 28,000 -360 Descending Houston Center
02:35PM 30.6597 -97.4850 204° Southwest 411 473 27,400 -840 Descending Houston Center
02:36PM 30.5519 -97.5386 203° Southwest 416 479 26,300 -1,260 Descending Houston Center
02:37PM 30.4442 -97.5914 203° Southwest 416 479 24,900 -1,500 Descending Houston Center
02:38PM 30.3397 -97.6447 204° Southwest 408 470 23,200 -1,560 Descending Houston Center
02:39PM 30.2356 -97.6950 203° Southwest 401 461 21,700 -2,040 Descending Houston Center
02:40PM 30.1433 -97.7411 203° Southwest 375 432 19,400 -2,640 Descending Houston Center
02:41PM 30.0511 -97.7867 203° Southwest 351 404 16,900 -2,400 Descending Houston Center
02:42PM 29.9650 -97.8292 203° Southwest 340 391 14,600 -2,220 Descending Houston Center
02:42PM 29.9436 -97.8386 201° Southwest 339 390 14,100 -1,920 Descending Houston Center
02:43PM 29.8881 -97.8822 214° Southwest 315 362 12,700 -1,800 Descending Houston Center
02:43PM 29.8756 -97.9100 243° Southwest 312 359 12,300 -1,320 Descending Houston Center
02:44PM 29.8522 -97.9689 245° Southwest 291 335 11,400 -1,260 Descending Houston Center
02:44PM 29.8417 -97.9942 244° Southwest 290 334 11,000 -1,620 Descending Houston Center
02:45PM 29.8164 -98.0553 245° Southwest 273 314 9,800 -1,800 Descending Houston Center
02:45PM 29.8058 -98.0789 243° Southwest 273 314 9,200 -1,620 Descending Houston Center
02:46PM 29.7839 -98.1339 245° Southwest 270 311 8,200 -1,380 Descending Houston Center
02:46PM 29.7731 -98.1569 242° Southwest 270 311 7,800 -1,500 Descending Houston Center
02:47PM 29.7508 -98.2078 243° Southwest 261 300 6,700 -1,800 Descending Houston Center
02:47PM 29.7392 -98.2358 244° Southwest 257 296 6,000 -720 Descending Houston Center
02:48PM 29.7197 -98.2789 243° Southwest 248 285 6,000  Level Houston Center
02:49PM 29.7094 -98.3058 246° West 246 283 6,000  Level Houston Center
02:49PM 29.7056 -98.3528 265° West 248 285 6,000  Level Houston Center
02:50PM 29.7100 -98.3883 278° West 245 282 6,000 -600 Level Houston Center
02:50PM 29.7133 -98.4361 275° West 237 273 5,400 -1,020 Descending Houston Center
02:51PM 29.7153 -98.4619 275° West 245 282 5,000 -1,140 Descending Houston Center
02:51PM 29.7178 -98.5078 274° West 232 267 4,300 -1,080 Descending Houston Center
02:52PM 29.7181 -98.5417 271° West 227 261 3,900 -900 Descending Houston Center
02:52PM 29.7161 -98.5825 267° West 228 262 3,400 -780 Descending Houston Center
02:53PM 29.7022 -98.6047 234° Southwest 206 237 3,100 -420 Descending Houston Center
02:53PM 29.6847 -98.6294 231° Southwest 179 206 3,000 -120 Descending Houston Center
02:54PM 29.6614 -98.6286 178° South 178 205 3,000  Level Houston Center
02:54PM 29.6436 -98.6153 147° Southeast 167 192 3,000  Level Houston Center
02:55PM 29.6250 -98.5917 132° Southeast 176 203 3,000 -240 Level Houston Center
02:55PM 29.6103 -98.5711 129° Southeast 171 197 2,800 -600 Descending Houston Center
02:56PM 29.5950 -98.5519 133° Southeast 158 182 2,400 -720 Descending Houston Center
02:56PM 29.5844 -98.5406 137° Southeast 131 151 2,100 -720 Descending Houston Center
02:57PM 29.5711 -98.5211 128° Southeast 135 155 1,700 -720 Descending Houston Center
02:57PM 29.5603 -98.5075 132° Southeast 132 152 1,400 -780 Descending Houston Center
02:58PM 29.5453 -98.4864 129° Southeast 135 155 900 -900 Descending Houston Center
03:00PM 29.5340 -98.4691 172° South  Level Estimated
03:07PM 29.5333 -98.4667 16° North  Level FlightAware Approximate